In Rescue
 
Wind Gusting 15 knots
09
April 20, 2024 9:07 AM EDT
Weather Information
Wind Direction
  320 °
Wind Speed
  09 kt (10 mph)
Wind Gust
  15 kt (17 mph)
Altimeter
30.25 in
Visibility
10 SM
Temperature
08° C
46° F
Dewpoint
02° C
36° F
Humidity
66%
Sky Condition
Clear
VFR

METAR KIMS 201307Z AUTO 32009G15KT 10SM CLR 08/02 A3025 RMK AO2

FAA Disclaimer: The data displayed is for advisory purposes only and is not to be used for flight planning or operations.